Weather at Dallas Love Field

Public forecast

Using degrees Fahrenheit for public forecast. Weather courtesy of forecast.io.

Current aviation weather report (METAR) for Dallas Love Field

Report is more than 2 hours old.

Retrieved 2021/10/15 21:53 UTC (2 hours ago):

KDAL 152153Z 34015G23KT 10SM FEW040 FEW250 23/11 A3006 RMK AO2 PK WND 36029/2126 SLP174 T02330106

Aviation forecast (TAF) for Dallas Love Field

Retrieved 2021/10/15 18:22 UTC (6 hours ago):

TAF KDAL 151720Z 1518/1618 31016KT P6SM BKN018 OVC030 TEMPO 1518/1519 BKN022 FM152000 34016G26KT P6SM SCT035 FM160000 35014KT P6SM SKC FM160600 35007KT P6SM SKC